Weather observations for the past three days for
Colorado Air and Space Port Airport
Imperial (Metric)
Date Time (mdt) Wind (mph) Vis. (mi.) Weather Sky Cond. Temperature (ºF) Relative Humidity Wind Chill (°F) Heat Index (°F) Pressure Precipitation (in)
Air Dwpt 6 hour altimeter (in) sea level (mb) 1 hr 3 hr 6 hr
Max. Min.
31 00:55 S 8 10.00 Fair CLR 64.6 51.8 63% 30.17 0.0
31 00:35 S 7 10.00 Partly Cloudy SCT120 66.7 51.8 59% 30.17 0.0
31 00:15 SW 5 10.00 Fair CLR 68.5 51.4 55% 30.18 0.0
30 23:55 S 5 10.00 Partly Cloudy SCT090 68 54.3 74.3 66.9 62% 30.18 0.0
30 23:35 SW 6 10.00 Overcast SCT060 SCT075 OVC090 69.8 54.1 58% 30.2 0.0
30 23:15 SW 9 10.00 Overcast SCT075 OVC100 70.5 53.1 54% 30.2 0.0
30 22:55 SW 13 G 21 10.00 Mostly Cloudy BKN110 72.3 50 45% 30.2 0.0
30 22:35 SE 7 10.00 Mostly Cloudy SCT100 BKN120 69.4 54.9 60% 30.18 0.0
30 22:15 S 6 10.00 Mostly Cloudy SCT075 SCT090 BKN110 69.1 53.8 58% 30.18 0.0
30 21:55 SW 7 10.00 Fair CLR 68.9 53.1 57% 30.16 0.0
30 21:35 SW 6 10.00 Fair CLR 67.5 54.7 64% 30.18 0.0
30 21:15 SW 8 10.00 Fair CLR 67.5 54.9 64% 30.16 0.0
30 17:47 NW 10 10.00 Fair CLR 73.4 53.6 50% 30.14 0.0
30 15:47 W 22 G 29 10.00 Overcast and Breezy OVC110 75.2 42.8 31% 77 30.14 0.0
30 09:47 SW 10 10.00 Fair CLR 75.2 46.4 36% 77 30.14 0.0
30 08:47 S 9 10.00 Fair CLR 71.6 48.2 44% 30.13 0.0
30 07:47 S 9 10.00 Fair CLR 69.8 48.2 46% 30.12 0.0
30 06:47 S 7 10.00 Fair CLR 62.6 51.8 68% 30.11 0.0
30 06:35 S 7 10.00 Fair CLR 61.7 50.7 67% 30.1 0.0
30 06:15 SW 5 10.00 Fair CLR 61.3 50.5 68% 30.1 0.0
30 05:55 SW 5 10.00 Fair CLR 65.5 49.1 66.7 61.9 56% 30.1 0.0
30 05:35 SW 6 10.00 Fair CLR 64.8 49.5 58% 30.1 0.0
30 05:15 W 5 10.00 Fair CLR 64.4 49.8 59% 30.1 0.0
30 04:55 W 6 10.00 Fair CLR 61.9 50.2 66% 30.1 0.0
30 04:35 Calm 10.00 Fair CLR 65.5 50.2 58% 30.09 0.0
30 04:15 SW 6 10.00 Fair CLR 65.8 50.2 57% 30.09 0.0
30 03:55 SW 7 10.00 Fair CLR 65.8 50.2 57% 30.09 0.0
30 03:35 SW 7 10.00 Fair CLR 64.6 50.7 61% 30.1 0.0
30 03:15 SW 7 10.00 Fair CLR 65.8 50.5 58% 30.09 0.0
30 02:55 SW 7 10.00 Fair CLR 65.1 51.1 61% 30.09 0.0
30 02:35 W 7 10.00 Fair CLR 64.4 51.1 62% 30.09 0.0
30 02:15 S 7 10.00 Fair CLR 64.8 51.4 62% 30.08 0.0
30 01:55 S 9 10.00 Fair CLR 65.8 50 57% 30.09 0.0
30 01:35 S 10 10.00 Fair CLR 66.2 50.2 56% 30.09 0.0
30 01:15 SW 12 10.00 Fair CLR 66.7 50 55% 30.11 0.0
30 00:55 SW 6 10.00 Fair CLR 65.7 50 57% 30.12 0.0
30 00:35 S 8 10.00 Fair CLR 64.6 50.5 61% 30.12 0.0
30 00:15 S 8 10.00 Fair CLR 63.9 50.5 62% 30.13 0.0
29 23:55 S 8 10.00 Fair CLR 63.5 50.7 81 63 63% 30.13 0.0
29 23:35 S 7 10.00 Fair CLR 63.5 50.2 62% 30.13 0.0
29 23:15 S 8 10.00 Fair CLR 63.7 50 61% 30.14 0.0
29 22:55 S 7 10.00 Fair CLR 64 49.1 58% 30.15 0.0
29 22:35 S 3 10.00 Fair CLR 64.8 48.2 55% 30.16 0.0
29 22:15 SE 6 10.00 Fair CLR 64.6 48.2 56% 30.16 0.0
29 21:55 E 8 10.00 Fair CLR 65.3 47.5 53% 30.15 0.0
29 21:35 Calm 10.00 Fair CLR 66.2 47.3 51% 30.16 0.0
29 21:15 NE 7 10.00 Fair CLR 67.6 46.8 47% 30.16 0.0
29 12:47 Calm 10.00 Fair CLR 91.4 35.6 14% 87 30.11 0.0
29 09:47 SW 7 10.00 Fair CLR 86 39.2 19% 83 30.14 0.0
29 08:47 W 9 10.00 Fair CLR 82.4 41 23% 80 30.14 0.0
29 07:47 W 6 10.00 Fair CLR 71.6 46.4 41% 30.15 0.0
29 06:47 S 6 10.00 Fair CLR 68 46.4 46% 30.15 0.0
29 06:35 S 6 10.00 Fair CLR 63.1 50.2 63% 30.14 0.0
29 06:15 S 6 10.00 Fair CLR 64.4 49.6 59% 30.14 0.0
29 05:55 SW 6 10.00 Fair CLR 67.5 47.5 70.7 65.3 49% 30.14 0.0
29 05:35 SW 9 10.00 Fair CLR 69.8 46.4 43% 30.14 0.0
29 05:15 S 10 10.00 Fair CLR 67.8 48.7 51% 30.14 0.0
29 04:55 S 9 10.00 Fair CLR 68.5 49.1 50% 30.15 0.0
29 04:35 SW 9 10.00 Fair CLR 69.4 47.5 46% 30.16 0.0
29 04:15 SW 9 10.00 Fair CLR 69.4 47.7 46% 30.16 0.0
29 03:50 SW 10 10.00 Fair CLR 70.7 47.3 43% 30.15 0.0
29 03:35 SW 8 10.00 Fair CLR 70.3 47.7 45% 30.15 0.0
29 03:15 S 8 10.00 Fair CLR 68.7 49.3 50% 30.15 0.0
29 02:55 S 8 10.00 Fair CLR 66.7 49.1 53% 30.15 0.0
29 02:35 S 9 10.00 Fair CLR 65.7 50.4 58% 30.16 0.0
29 02:15 S 9 10.00 Fair CLR 65.5 50.4 58% 30.16 0.0
29 01:55 S 8 10.00 Fair CLR 66.9 50 55% 30.16 0.0
29 01:35 S 9 10.00 Fair CLR 67.1 50 54% 30.16 0.0
29 01:15 S 8 10.00 Fair CLR 68.5 49.3 50% 30.16 0.0
29 00:55 S 9 10.00 Fair CLR 68.2 50 52% 30.18 0.0
29 00:35 S 6 10.00 Fair CLR 69.8 48.7 47% 30.18 0.0
29 00:15 S 9 10.00 Fair CLR 68.9 49.6 50% 30.18 0.0
28 23:55 S 9 10.00 Fair CLR 70 50 86.4 70 49% 30.18 0.0
28 23:35 SW 6 10.00 Fair CLR 74.1 46.8 38% 30.18 0.0
28 23:15 S 9 10.00 Partly Cloudy SCT120 71.6 49.3 45% 30.18 0.0
28 22:55 SW 5 10.00 Partly Cloudy SCT120 75.9 46 35% 78 30.19 0.0
28 22:35 SW 7 10.00 Fair CLR 75 46 36% 77 30.19 0.0
28 22:15 SW 7 10.00 Fair CLR 76.3 44.1 32% 77 30.19 0.0
28 21:55 SW 7 10.00 Fair CLR 78.1 42.8 29% 78 30.19 0.0
28 21:35 SW 7 10.00 Fair CLR 78.1 42.8 29% 78 30.19 0.0
28 21:15 SW 8 10.00 Fair CLR 79.2 42.8 28% 79 30.19 0.0
28 17:47 NW 8 G 16 10.00 Fair CLR 86 41 20% 83 30.16 0.0
28 16:47 SW 3 10.00 Fair CLR 93.2 32 11% 89 30.11 0.0
28 14:47 S 7 10.00 Fair CLR 96.8 30.2 9% 92 30.14 0.0
28 13:47 SW 8 10.00 Fair CLR 95 30.2 10% 90 30.16 0.0
28 12:47 N 5 10.00 Fair CLR 93.2 30.2 11% 89 30.17 0.0
28 09:47 SW 8 10.00 Fair CLR 86 39.2 19% 83 30.21 0.0
28 08:47 W 10 10.00 Fair CLR 82.4 42.8 25% 80 30.22 0.0
28 07:47 SW 10 10.00 Fair CLR 75.2 44.6 34% 77 30.21 0.0
28 06:47 S 14 10.00 Fair CLR 66.2 46.4 49% 30.2 0.0
28 06:35 S 13 10.00 Fair CLR 70.3 46.8 43% 30.2 0.0
28 06:15 SW 14 10.00 Fair CLR 71.1 45.5 40% 30.19 0.0
28 05:55 SW 14 10.00 Fair CLR 71.4 44.8 71.4 63.5 39% 30.18 0.0
28 05:35 SW 14 10.00 Fair CLR 66.9 47.1 49% 30.19 0.0
28 05:15 S 12 10.00 Fair CLR 63.5 48.7 59% 30.19 0.0
28 04:55 S 10 10.00 Fair CLR 64 48.7 58% 30.19 0.0
28 04:35 S 10 10.00 Fair CLR 69.6 45.9 43% 30.19 0.0
28 04:15 SW 13 10.00 Fair CLR 67.8 46.9 47% 30.19 0.0
28 03:55 S 13 10.00 Fair CLR 68.2 47.1 47% 30.19 0.0
28 03:35 S 13 10.00 Fair CLR 68.9 46.8 45% 30.19 0.0
28 03:15 S 12 10.00 Fair CLR 67.3 48 50% 30.2 0.0
28 02:55 S 10 10.00 Fair CLR 67.6 48.2 50% 30.2 0.0
28 02:35 S 12 10.00 Fair CLR 67.5 48.6 51% 30.21 0.0
28 02:15 S 13 10.00 Fair CLR 68 49.1 51% 30.21 0.0
28 01:55 S 13 10.00 Fair CLR 68.4 49.3 51% 30.21 0.0
28 01:35 S 13 10.00 Fair CLR 68.4 49.6 51% 30.21 0.0
28 01:15 S 13 10.00 Fair CLR 68.9 50 51% 30.21 0.0
Date Time (mdt) Wind (mph) Vis. (mi.) Weather Sky Cond. Air Dwpt Max. Min. Relative Humidity Wind Chill (°F) Heat Index (°F) altimeter (in) sea level (mb) 1 hr 3 hr 6 hr
6 hour
Temperature (ºF) Pressure Precipitation (in)